sensor_id;sensor_type;location;lat;lon;timestamp;P1;durP1;ratioP1;P2;durP2;ratioP2
16522;SDS011;19889;52.546;13.348;2023-04-24T00:00:14;4.65;;;3.08;;
16522;SDS011;19889;52.546;13.348;2023-04-24T00:02:43;3.92;;;3.33;;
16522;SDS011;19889;52.546;13.348;2023-04-24T00:05:13;3.65;;;3.35;;
16522;SDS011;19889;52.546;13.348;2023-04-24T00:07:42;3.55;;;3.25;;
16522;SDS011;19889;52.546;13.348;2023-04-24T00:10:10;3.17;;;2.88;;
16522;SDS011;19889;52.546;13.348;2023-04-24T00:12:38;4.38;;;3.35;;
16522;SDS011;19889;52.546;13.348;2023-04-24T00:15:05;3.63;;;3.33;;
16522;SDS011;19889;52.546;13.348;2023-04-24T00:17:33;3.78;;;3.25;;
16522;SDS011;19889;52.546;13.348;2023-04-24T00:20:00;3.22;;;2.92;;
16522;SDS011;19889;52.546;13.348;2023-04-24T00:22:31;3.83;;;3.47;;
16522;SDS011;19889;52.546;13.348;2023-04-24T00:24:58;3.45;;;3.15;;
16522;SDS011;19889;52.546;13.348;2023-04-24T00:27:25;3.40;;;3.10;;
16522;SDS011;19889;52.546;13.348;2023-04-24T00:29:52;3.80;;;3.50;;
16522;SDS011;19889;52.546;13.348;2023-04-24T00:32:19;3.83;;;3.53;;
16522;SDS011;19889;52.546;13.348;2023-04-24T00:34:47;3.72;;;3.20;;
16522;SDS011;19889;52.546;13.348;2023-04-24T00:37:14;4.10;;;3.70;;
16522;SDS011;19889;52.546;13.348;2023-04-24T00:39:44;3.70;;;3.35;;
16522;SDS011;19889;52.546;13.348;2023-04-24T00:42:12;4.88;;;4.07;;
16522;SDS011;19889;52.546;13.348;2023-04-24T00:44:39;3.63;;;3.33;;
16522;SDS011;19889;52.546;13.348;2023-04-24T00:47:07;4.32;;;3.80;;
16522;SDS011;19889;52.546;13.348;2023-04-24T00:49:34;4.00;;;3.60;;
16522;SDS011;19889;52.546;13.348;2023-04-24T00:52:01;3.75;;;3.35;;
16522;SDS011;19889;52.546;13.348;2023-04-24T00:54:32;4.00;;;3.60;;
16522;SDS011;19889;52.546;13.348;2023-04-24T00:57:01;4.40;;;3.90;;
16522;SDS011;19889;52.546;13.348;2023-04-24T00:59:28;3.78;;;3.47;;
16522;SDS011;19889;52.546;13.348;2023-04-24T01:01:56;3.83;;;3.33;;
16522;SDS011;19889;52.546;13.348;2023-04-24T01:04:23;4.00;;;3.70;;
16522;SDS011;19889;52.546;13.348;2023-04-24T01:06:51;4.68;;;4.20;;
16522;SDS011;19889;52.546;13.348;2023-04-24T01:09:19;3.92;;;3.13;;
16522;SDS011;19889;52.546;13.348;2023-04-24T01:11:47;3.67;;;3.38;;
16522;SDS011;19889;52.546;13.348;2023-04-24T01:14:17;4.13;;;3.28;;
16522;SDS011;19889;52.546;13.348;2023-04-24T01:16:44;3.90;;;3.42;;
16522;SDS011;19889;52.546;13.348;2023-04-24T01:19:11;3.50;;;3.20;;
16522;SDS011;19889;52.546;13.348;2023-04-24T01:21:39;4.45;;;3.95;;
16522;SDS011;19889;52.546;13.348;2023-04-24T01:24:09;6.43;;;3.60;;
16522;SDS011;19889;52.546;13.348;2023-04-24T01:26:37;4.78;;;3.40;;
16522;SDS011;19889;52.546;13.348;2023-04-24T01:29:04;6.68;;;3.83;;
16522;SDS011;19889;52.546;13.348;2023-04-24T01:31:31;4.47;;;4.07;;
16522;SDS011;19889;52.546;13.348;2023-04-24T01:33:59;4.13;;;3.80;;
16522;SDS011;19889;52.546;13.348;2023-04-24T01:36:26;4.43;;;3.55;;
16522;SDS011;19889;52.546;13.348;2023-04-24T01:38:54;3.88;;;3.53;;
16522;SDS011;19889;52.546;13.348;2023-04-24T01:41:26;3.95;;;3.55;;
16522;SDS011;19889;52.546;13.348;2023-04-24T01:43:53;4.10;;;3.45;;
16522;SDS011;19889;52.546;13.348;2023-04-24T01:46:21;4.70;;;4.20;;
16522;SDS011;19889;52.546;13.348;2023-04-24T01:48:48;4.28;;;3.88;;
16522;SDS011;19889;52.546;13.348;2023-04-24T01:51:15;6.35;;;4.35;;
16522;SDS011;19889;52.546;13.348;2023-04-24T01:53:42;3.60;;;3.30;;
16522;SDS011;19889;52.546;13.348;2023-04-24T01:56:09;4.82;;;4.40;;
16522;SDS011;19889;52.546;13.348;2023-04-24T01:58:38;3.92;;;3.63;;
16522;SDS011;19889;52.546;13.348;2023-04-24T02:01:05;4.40;;;3.95;;
16522;SDS011;19889;52.546;13.348;2023-04-24T02:03:33;4.28;;;3.88;;
16522;SDS011;19889;52.546;13.348;2023-04-24T02:06:00;3.90;;;3.60;;
16522;SDS011;19889;52.546;13.348;2023-04-24T02:08:27;5.95;;;3.90;;
16522;SDS011;19889;52.546;13.348;2023-04-24T02:10:53;4.95;;;3.63;;
16522;SDS011;19889;52.546;13.348;2023-04-24T02:13:20;4.07;;;3.67;;
16522;SDS011;19889;52.546;13.348;2023-04-24T02:15:49;4.35;;;3.95;;
16522;SDS011;19889;52.546;13.348;2023-04-24T02:18:16;4.63;;;3.60;;
16522;SDS011;19889;52.546;13.348;2023-04-24T02:20:43;4.15;;;3.85;;
16522;SDS011;19889;52.546;13.348;2023-04-24T02:23:10;4.50;;;4.10;;
16522;SDS011;19889;52.546;13.348;2023-04-24T02:25:38;4.57;;;4.18;;
16522;SDS011;19889;52.546;13.348;2023-04-24T02:28:05;4.28;;;3.88;;
16522;SDS011;19889;52.546;13.348;2023-04-24T02:30:33;4.28;;;3.80;;
16522;SDS011;19889;52.546;13.348;2023-04-24T02:33:01;4.70;;;3.97;;
16522;SDS011;19889;52.546;13.348;2023-04-24T02:35:29;4.40;;;4.00;;
16522;SDS011;19889;52.546;13.348;2023-04-24T02:37:56;4.75;;;4.25;;
16522;SDS011;19889;52.546;13.348;2023-04-24T02:40:23;4.22;;;3.83;;
16522;SDS011;19889;52.546;13.348;2023-04-24T02:42:50;4.80;;;4.38;;
16522;SDS011;19889;52.546;13.348;2023-04-24T02:45:17;6.45;;;4.80;;
16522;SDS011;19889;52.546;13.348;2023-04-24T02:47:44;5.45;;;4.35;;
16522;SDS011;19889;52.546;13.348;2023-04-24T02:50:12;4.70;;;4.30;;
16522;SDS011;19889;52.546;13.348;2023-04-24T02:52:39;4.75;;;4.35;;
16522;SDS011;19889;52.546;13.348;2023-04-24T02:55:06;5.03;;;4.50;;
16522;SDS011;19889;52.546;13.348;2023-04-24T02:57:34;7.10;;;4.57;;
16522;SDS011;19889;52.546;13.348;2023-04-24T03:00:01;4.50;;;4.10;;
16522;SDS011;19889;52.546;13.348;2023-04-24T03:02:32;6.20;;;4.63;;
16522;SDS011;19889;52.546;13.348;2023-04-24T03:04:59;4.65;;;4.25;;
16522;SDS011;19889;52.546;13.348;2023-04-24T03:07:27;5.30;;;3.95;;
16522;SDS011;19889;52.546;13.348;2023-04-24T03:09:54;5.00;;;4.32;;
16522;SDS011;19889;52.546;13.348;2023-04-24T03:12:23;4.65;;;4.25;;
16522;SDS011;19889;52.546;13.348;2023-04-24T03:14:50;5.10;;;4.60;;
16522;SDS011;19889;52.546;13.348;2023-04-24T03:17:18;4.70;;;4.35;;
16522;SDS011;19889;52.546;13.348;2023-04-24T03:19:45;5.60;;;4.93;;
16522;SDS011;19889;52.546;13.348;2023-04-24T03:22:12;5.25;;;4.85;;
16522;SDS011;19889;52.546;13.348;2023-04-24T03:24:41;4.80;;;4.32;;
16522;SDS011;19889;52.546;13.348;2023-04-24T03:27:08;5.15;;;4.57;;
16522;SDS011;19889;52.546;13.348;2023-04-24T03:30:01;4.43;;;4.03;;
16522;SDS011;19889;52.546;13.348;2023-04-24T03:32:52;5.95;;;4.78;;
16522;SDS011;19889;52.546;13.348;2023-04-24T03:35:23;4.80;;;4.40;;
16522;SDS011;19889;52.546;13.348;2023-04-24T03:37:51;5.13;;;4.63;;
16522;SDS011;19889;52.546;13.348;2023-04-24T03:40:55;5.53;;;4.28;;
16522;SDS011;19889;52.546;13.348;2023-04-24T03:43:45;6.75;;;5.82;;
16522;SDS011;19889;52.546;13.348;2023-04-24T03:46:12;5.35;;;4.85;;
16522;SDS011;19889;52.546;13.348;2023-04-24T03:48:45;5.05;;;4.63;;
16522;SDS011;19889;52.546;13.348;2023-04-24T03:51:12;7.60;;;4.55;;
16522;SDS011;19889;52.546;13.348;2023-04-24T03:53:43;9.95;;;4.65;;
16522;SDS011;19889;52.546;13.348;2023-04-24T03:56:14;5.43;;;4.68;;
16522;SDS011;19889;52.546;13.348;2023-04-24T03:58:42;5.03;;;4.50;;
16522;SDS011;19889;52.546;13.348;2023-04-24T04:01:10;4.68;;;4.28;;
16522;SDS011;19889;52.546;13.348;2023-04-24T04:03:39;5.13;;;4.63;;
16522;SDS011;19889;52.546;13.348;2023-04-24T04:06:07;4.82;;;4.32;;
16522;SDS011;19889;52.546;13.348;2023-04-24T04:08:36;4.93;;;4.43;;
16522;SDS011;19889;52.546;13.348;2023-04-24T04:11:03;6.78;;;4.63;;
16522;SDS011;19889;52.546;13.348;2023-04-24T04:13:31;4.55;;;4.15;;
16522;SDS011;19889;52.546;13.348;2023-04-24T04:15:59;6.47;;;4.05;;
16522;SDS011;19889;52.546;13.348;2023-04-24T04:18:26;4.93;;;3.60;;
16522;SDS011;19889;52.546;13.348;2023-04-24T04:20:53;3.95;;;3.58;;
16522;SDS011;19889;52.546;13.348;2023-04-24T04:23:20;4.45;;;4.05;;
16522;SDS011;19889;52.546;13.348;2023-04-24T04:26:02;5.22;;;3.92;;
16522;SDS011;19889;52.546;13.348;2023-04-24T04:28:45;4.22;;;3.83;;
16522;SDS011;19889;52.546;13.348;2023-04-24T04:31:12;4.03;;;3.67;;
16522;SDS011;19889;52.546;13.348;2023-04-24T04:33:40;4.82;;;3.65;;
16522;SDS011;19889;52.546;13.348;2023-04-24T04:36:08;4.63;;;3.90;;
16522;SDS011;19889;52.546;13.348;2023-04-24T04:38:38;6.65;;;3.70;;
16522;SDS011;19889;52.546;13.348;2023-04-24T04:41:24;6.55;;;3.63;;
16522;SDS011;19889;52.546;13.348;2023-04-24T04:43:53;3.90;;;3.50;;
16522;SDS011;19889;52.546;13.348;2023-04-24T04:46:20;3.70;;;3.40;;
16522;SDS011;19889;52.546;13.348;2023-04-24T04:49:09;3.90;;;3.60;;
16522;SDS011;19889;52.546;13.348;2023-04-24T04:51:37;3.63;;;3.33;;
16522;SDS011;19889;52.546;13.348;2023-04-24T04:54:04;4.78;;;3.10;;
16522;SDS011;19889;52.546;13.348;2023-04-24T04:56:31;7.28;;;3.60;;
16522;SDS011;19889;52.546;13.348;2023-04-24T04:59:01;4.15;;;3.72;;
16522;SDS011;19889;52.546;13.348;2023-04-24T05:01:28;7.63;;;4.55;;
16522;SDS011;19889;52.546;13.348;2023-04-24T05:03:55;4.13;;;3.47;;
16522;SDS011;19889;52.546;13.348;2023-04-24T05:06:22;3.75;;;3.45;;
16522;SDS011;19889;52.546;13.348;2023-04-24T05:08:49;4.85;;;3.47;;
16522;SDS011;19889;52.546;13.348;2023-04-24T05:11:34;5.60;;;3.53;;
16522;SDS011;19889;52.546;13.348;2023-04-24T05:14:03;3.42;;;3.13;;
16522;SDS011;19889;52.546;13.348;2023-04-24T05:16:37;5.47;;;3.15;;
16522;SDS011;19889;52.546;13.348;2023-04-24T05:19:06;3.30;;;3.00;;
16522;SDS011;19889;52.546;13.348;2023-04-24T05:21:37;3.78;;;3.33;;
16522;SDS011;19889;52.546;13.348;2023-04-24T05:24:06;3.47;;;3.17;;
16522;SDS011;19889;52.546;13.348;2023-04-24T05:26:59;3.78;;;3.47;;
16522;SDS011;19889;52.546;13.348;2023-04-24T05:29:35;3.55;;;3.10;;
16522;SDS011;19889;52.546;13.348;2023-04-24T05:32:04;3.72;;;2.95;;
16522;SDS011;19889;52.546;13.348;2023-04-24T05:34:31;6.80;;;3.08;;
16522;SDS011;19889;52.546;13.348;2023-04-24T05:36:58;3.65;;;2.80;;
16522;SDS011;19889;52.546;13.348;2023-04-24T05:41:52;5.68;;;3.30;;
16522;SDS011;19889;52.546;13.348;2023-04-24T05:44:20;3.78;;;2.78;;
16522;SDS011;19889;52.546;13.348;2023-04-24T05:46:48;3.55;;;3.05;;
16522;SDS011;19889;52.546;13.348;2023-04-24T05:49:15;3.08;;;2.78;;
16522;SDS011;19889;52.546;13.348;2023-04-24T05:51:44;3.40;;;3.10;;
16522;SDS011;19889;52.546;13.348;2023-04-24T05:54:11;3.38;;;3.05;;
16522;SDS011;19889;52.546;13.348;2023-04-24T05:56:39;3.15;;;2.95;;
16522;SDS011;19889;52.546;13.348;2023-04-24T05:59:08;3.88;;;2.90;;
16522;SDS011;19889;52.546;13.348;2023-04-24T06:01:35;2.80;;;2.55;;
16522;SDS011;19889;52.546;13.348;2023-04-24T06:04:13;3.13;;;2.67;;
16522;SDS011;19889;52.546;13.348;2023-04-24T06:06:41;4.10;;;2.80;;
16522;SDS011;19889;52.546;13.348;2023-04-24T06:09:08;5.13;;;2.80;;
16522;SDS011;19889;52.546;13.348;2023-04-24T06:11:35;3.97;;;2.45;;
16522;SDS011;19889;52.546;13.348;2023-04-24T06:14:02;3.75;;;3.38;;
16522;SDS011;19889;52.546;13.348;2023-04-24T06:16:49;5.80;;;3.50;;
16522;SDS011;19889;52.546;13.348;2023-04-24T06:19:30;2.13;;;1.98;;
16522;SDS011;19889;52.546;13.348;2023-04-24T06:21:57;2.20;;;2.00;;
16522;SDS011;19889;52.546;13.348;2023-04-24T06:24:26;2.30;;;2.10;;
16522;SDS011;19889;52.546;13.348;2023-04-24T06:26:53;2.03;;;1.80;;
16522;SDS011;19889;52.546;13.348;2023-04-24T06:29:21;4.32;;;3.00;;
16522;SDS011;19889;52.546;13.348;2023-04-24T06:31:49;2.92;;;1.70;;
16522;SDS011;19889;52.546;13.348;2023-04-24T06:34:16;2.60;;;2.40;;
16522;SDS011;19889;52.546;13.348;2023-04-24T06:36:44;2.55;;;2.05;;
16522;SDS011;19889;52.546;13.348;2023-04-24T06:39:12;3.90;;;2.72;;
16522;SDS011;19889;52.546;13.348;2023-04-24T06:41:39;7.82;;;4.38;;
16522;SDS011;19889;52.546;13.348;2023-04-24T06:44:14;6.80;;;4.25;;
16522;SDS011;19889;52.546;13.348;2023-04-24T06:46:41;3.90;;;1.92;;
16522;SDS011;19889;52.546;13.348;2023-04-24T06:49:09;1.88;;;1.60;;
16522;SDS011;19889;52.546;13.348;2023-04-24T06:51:35;2.90;;;1.60;;
16522;SDS011;19889;52.546;13.348;2023-04-24T06:54:04;3.40;;;2.20;;
16522;SDS011;19889;52.546;13.348;2023-04-24T06:56:31;2.58;;;1.63;;
16522;SDS011;19889;52.546;13.348;2023-04-24T06:58:59;3.20;;;2.10;;
16522;SDS011;19889;52.546;13.348;2023-04-24T07:01:26;1.85;;;1.75;;
16522;SDS011;19889;52.546;13.348;2023-04-24T07:03:53;1.95;;;1.27;;
16522;SDS011;19889;52.546;13.348;2023-04-24T07:06:20;2.40;;;1.40;;
16522;SDS011;19889;52.546;13.348;2023-04-24T07:08:48;2.55;;;1.30;;
16522;SDS011;19889;52.546;13.348;2023-04-24T07:11:17;1.30;;;1.20;;
16522;SDS011;19889;52.546;13.348;2023-04-24T07:13:43;2.35;;;1.17;;
16522;SDS011;19889;52.546;13.348;2023-04-24T07:16:10;1.45;;;1.20;;
16522;SDS011;19889;52.546;13.348;2023-04-24T07:18:38;1.08;;;1.05;;
16522;SDS011;19889;52.546;13.348;2023-04-24T07:21:05;1.92;;;0.90;;
16522;SDS011;19889;52.546;13.348;2023-04-24T07:23:32;1.08;;;1.00;;
16522;SDS011;19889;52.546;13.348;2023-04-24T07:25:59;1.30;;;1.20;;
16522;SDS011;19889;52.546;13.348;2023-04-24T07:28:27;2.00;;;0.95;;
16522;SDS011;19889;52.546;13.348;2023-04-24T07:30:56;0.80;;;0.80;;
16522;SDS011;19889;52.546;13.348;2023-04-24T07:33:23;1.48;;;0.75;;
16522;SDS011;19889;52.546;13.348;2023-04-24T07:35:50;1.20;;;0.98;;
16522;SDS011;19889;52.546;13.348;2023-04-24T07:38:18;0.98;;;0.90;;
16522;SDS011;19889;52.546;13.348;2023-04-24T07:40:47;0.80;;;0.80;;
16522;SDS011;19889;52.546;13.348;2023-04-24T07:43:14;2.17;;;1.02;;
16522;SDS011;19889;52.546;13.348;2023-04-24T07:45:42;1.48;;;0.95;;
16522;SDS011;19889;52.546;13.348;2023-04-24T07:48:09;1.42;;;0.90;;
16522;SDS011;19889;52.546;13.348;2023-04-24T07:50:36;2.80;;;2.15;;
16522;SDS011;19889;52.546;13.348;2023-04-24T07:53:03;0.88;;;0.70;;
16522;SDS011;19889;52.546;13.348;2023-04-24T07:55:30;0.95;;;0.60;;
16522;SDS011;19889;52.546;13.348;2023-04-24T07:57:57;1.00;;;1.00;;
16522;SDS011;19889;52.546;13.348;2023-04-24T08:00:24;0.93;;;0.82;;
16522;SDS011;19889;52.546;13.348;2023-04-24T08:02:53;0.93;;;0.82;;
16522;SDS011;19889;52.546;13.348;2023-04-24T08:05:20;2.88;;;0.93;;
16522;SDS011;19889;52.546;13.348;2023-04-24T08:07:47;1.50;;;1.13;;
16522;SDS011;19889;52.546;13.348;2023-04-24T08:10:15;0.77;;;0.77;;
16522;SDS011;19889;52.546;13.348;2023-04-24T08:12:42;1.60;;;1.00;;
16522;SDS011;19889;52.546;13.348;2023-04-24T08:15:09;1.10;;;1.10;;
16522;SDS011;19889;52.546;13.348;2023-04-24T08:17:36;1.30;;;1.20;;
16522;SDS011;19889;52.546;13.348;2023-04-24T08:20:06;3.45;;;1.02;;
16522;SDS011;19889;52.546;13.348;2023-04-24T08:22:38;1.38;;;1.00;;
16522;SDS011;19889;52.546;13.348;2023-04-24T08:25:05;1.42;;;1.17;;
16522;SDS011;19889;52.546;13.348;2023-04-24T08:27:33;0.70;;;0.70;;
16522;SDS011;19889;52.546;13.348;2023-04-24T08:30:01;1.50;;;0.88;;
16522;SDS011;19889;52.546;13.348;2023-04-24T08:32:29;1.10;;;1.05;;
16522;SDS011;19889;52.546;13.348;2023-04-24T08:34:56;2.00;;;1.10;;
16522;SDS011;19889;52.546;13.348;2023-04-24T08:37:26;5.32;;;1.67;;
16522;SDS011;19889;52.546;13.348;2023-04-24T08:39:53;2.30;;;1.30;;
16522;SDS011;19889;52.546;13.348;2023-04-24T08:42:21;0.85;;;0.70;;
16522;SDS011;19889;52.546;13.348;2023-04-24T08:44:48;3.20;;;0.93;;
16522;SDS011;19889;52.546;13.348;2023-04-24T08:47:16;3.20;;;2.88;;
16522;SDS011;19889;52.546;13.348;2023-04-24T08:49:43;1.48;;;1.33;;
16522;SDS011;19889;52.546;13.348;2023-04-24T08:52:11;2.17;;;1.30;;
16522;SDS011;19889;52.546;13.348;2023-04-24T08:54:41;1.95;;;1.40;;
16522;SDS011;19889;52.546;13.348;2023-04-24T08:57:10;1.90;;;1.70;;
16522;SDS011;19889;52.546;13.348;2023-04-24T08:59:40;0.93;;;0.93;;
16522;SDS011;19889;52.546;13.348;2023-04-24T09:02:08;0.80;;;0.80;;
16522;SDS011;19889;52.546;13.348;2023-04-24T09:04:37;2.58;;;1.25;;
16522;SDS011;19889;52.546;13.348;2023-04-24T09:07:04;2.63;;;1.65;;
16522;SDS011;19889;52.546;13.348;2023-04-24T09:09:33;1.08;;;1.08;;
16522;SDS011;19889;52.546;13.348;2023-04-24T09:12:02;3.03;;;1.42;;
16522;SDS011;19889;52.546;13.348;2023-04-24T09:14:30;95.38;;;12.43;;
16522;SDS011;19889;52.546;13.348;2023-04-24T09:16:58;9.50;;;3.42;;
16522;SDS011;19889;52.546;13.348;2023-04-24T09:19:25;2.05;;;1.50;;
16522;SDS011;19889;52.546;13.348;2023-04-24T09:21:52;3.53;;;0.95;;
16522;SDS011;19889;52.546;13.348;2023-04-24T09:24:21;1.55;;;0.73;;
16522;SDS011;19889;52.546;13.348;2023-04-24T09:26:48;1.42;;;0.80;;
16522;SDS011;19889;52.546;13.348;2023-04-24T09:29:24;3.55;;;1.80;;
16522;SDS011;19889;52.546;13.348;2023-04-24T09:31:51;15.40;;;3.53;;
16522;SDS011;19889;52.546;13.348;2023-04-24T09:34:20;2.17;;;1.20;;
16522;SDS011;19889;52.546;13.348;2023-04-24T09:36:49;1.02;;;0.77;;
16522;SDS011;19889;52.546;13.348;2023-04-24T09:39:17;1.67;;;0.90;;
16522;SDS011;19889;52.546;13.348;2023-04-24T09:41:46;3.33;;;2.00;;
16522;SDS011;19889;52.546;13.348;2023-04-24T09:44:15;1.70;;;1.23;;
16522;SDS011;19889;52.546;13.348;2023-04-24T09:46:46;2.17;;;1.30;;
16522;SDS011;19889;52.546;13.348;2023-04-24T09:49:19;1.05;;;0.88;;
16522;SDS011;19889;52.546;13.348;2023-04-24T09:51:49;3.40;;;1.88;;
16522;SDS011;19889;52.546;13.348;2023-04-24T09:54:17;1.35;;;0.90;;
16522;SDS011;19889;52.546;13.348;2023-04-24T09:56:46;3.50;;;1.27;;
16522;SDS011;19889;52.546;13.348;2023-04-24T09:59:15;0.90;;;0.90;;
16522;SDS011;19889;52.546;13.348;2023-04-24T10:01:44;1.02;;;0.90;;
16522;SDS011;19889;52.546;13.348;2023-04-24T10:04:15;1.52;;;0.80;;
16522;SDS011;19889;52.546;13.348;2023-04-24T10:06:43;4.22;;;2.30;;
16522;SDS011;19889;52.546;13.348;2023-04-24T10:09:11;4.20;;;2.85;;
16522;SDS011;19889;52.546;13.348;2023-04-24T10:11:41;3.38;;;2.50;;
16522;SDS011;19889;52.546;13.348;2023-04-24T10:14:10;4.25;;;2.17;;
16522;SDS011;19889;52.546;13.348;2023-04-24T10:16:39;2.90;;;2.05;;
16522;SDS011;19889;52.546;13.348;2023-04-24T10:19:08;5.97;;;2.67;;
16522;SDS011;19889;52.546;13.348;2023-04-24T10:21:38;2.03;;;1.40;;
16522;SDS011;19889;52.546;13.348;2023-04-24T10:24:07;4.22;;;2.00;;
16522;SDS011;19889;52.546;13.348;2023-04-24T10:26:35;2.85;;;1.13;;
16522;SDS011;19889;52.546;13.348;2023-04-24T10:29:02;0.90;;;0.85;;
16522;SDS011;19889;52.546;13.348;2023-04-24T10:31:35;1.02;;;0.77;;
16522;SDS011;19889;52.546;13.348;2023-04-24T10:34:03;4.78;;;2.90;;
16522;SDS011;19889;52.546;13.348;2023-04-24T10:36:32;3.08;;;1.70;;
16522;SDS011;19889;52.546;13.348;2023-04-24T10:39:01;1.00;;;1.00;;
16522;SDS011;19889;52.546;13.348;2023-04-24T10:41:30;2.15;;;0.93;;
16522;SDS011;19889;52.546;13.348;2023-04-24T10:44:06;1.90;;;1.60;;
16522;SDS011;19889;52.546;13.348;2023-04-24T10:46:34;2.10;;;1.20;;
16522;SDS011;19889;52.546;13.348;2023-04-24T10:49:03;1.35;;;0.80;;
16522;SDS011;19889;52.546;13.348;2023-04-24T10:51:45;1.65;;;1.10;;
16522;SDS011;19889;52.546;13.348;2023-04-24T10:54:27;1.80;;;1.02;;
16522;SDS011;19889;52.546;13.348;2023-04-24T11:00:09;1.50;;;0.77;;
16522;SDS011;19889;52.546;13.348;2023-04-24T11:02:40;0.93;;;0.77;;
16522;SDS011;19889;52.546;13.348;2023-04-24T11:05:14;2.33;;;1.10;;
16522;SDS011;19889;52.546;13.348;2023-04-24T11:10:43;2.05;;;1.70;;
16522;SDS011;19889;52.546;13.348;2023-04-24T11:13:14;4.22;;;1.67;;
16522;SDS011;19889;52.546;13.348;2023-04-24T11:15:42;1.67;;;1.00;;
16522;SDS011;19889;52.546;13.348;2023-04-24T11:18:12;0.60;;;0.60;;
16522;SDS011;19889;52.546;13.348;2023-04-24T11:20:41;0.90;;;0.70;;
16522;SDS011;19889;52.546;13.348;2023-04-24T11:23:09;1.10;;;0.93;;
16522;SDS011;19889;52.546;13.348;2023-04-24T11:25:40;1.17;;;1.10;;
16522;SDS011;19889;52.546;13.348;2023-04-24T11:28:07;1.75;;;1.42;;
16522;SDS011;19889;52.546;13.348;2023-04-24T11:30:42;4.07;;;1.38;;
16522;SDS011;19889;52.546;13.348;2023-04-24T11:33:08;2.60;;;1.83;;
16522;SDS011;19889;52.546;13.348;2023-04-24T11:35:36;2.88;;;2.47;;
16522;SDS011;19889;52.546;13.348;2023-04-24T11:38:06;11.35;;;3.65;;
16522;SDS011;19889;52.546;13.348;2023-04-24T11:40:35;6.72;;;4.15;;
16522;SDS011;19889;52.546;13.348;2023-04-24T11:43:03;7.07;;;3.20;;
16522;SDS011;19889;52.546;13.348;2023-04-24T11:45:30;3.35;;;1.50;;
16522;SDS011;19889;52.546;13.348;2023-04-24T11:47:58;3.63;;;1.90;;
16522;SDS011;19889;52.546;13.348;2023-04-24T11:50:25;6.63;;;2.80;;
16522;SDS011;19889;52.546;13.348;2023-04-24T11:52:54;3.72;;;1.73;;
16522;SDS011;19889;52.546;13.348;2023-04-24T11:55:26;5.38;;;1.67;;
16522;SDS011;19889;52.546;13.348;2023-04-24T11:57:56;3.05;;;1.33;;
16522;SDS011;19889;52.546;13.348;2023-04-24T12:00:24;1.63;;;1.00;;
16522;SDS011;19889;52.546;13.348;2023-04-24T12:03:03;2.35;;;1.25;;
16522;SDS011;19889;52.546;13.348;2023-04-24T12:05:32;4.00;;;1.65;;
16522;SDS011;19889;52.546;13.348;2023-04-24T12:07:59;1.35;;;1.00;;
16522;SDS011;19889;52.546;13.348;2023-04-24T12:10:27;1.75;;;1.48;;
16522;SDS011;19889;52.546;13.348;2023-04-24T12:12:57;2.28;;;1.50;;
16522;SDS011;19889;52.546;13.348;2023-04-24T12:15:25;1.45;;;1.13;;
16522;SDS011;19889;52.546;13.348;2023-04-24T12:17:53;1.90;;;1.13;;
16522;SDS011;19889;52.546;13.348;2023-04-24T12:20:24;2.72;;;1.50;;
16522;SDS011;19889;52.546;13.348;2023-04-24T12:22:53;1.63;;;1.00;;
16522;SDS011;19889;52.546;13.348;2023-04-24T12:25:22;3.78;;;1.90;;
16522;SDS011;19889;52.546;13.348;2023-04-24T12:27:54;12.00;;;5.95;;
16522;SDS011;19889;52.546;13.348;2023-04-24T12:30:39;2.35;;;1.88;;
16522;SDS011;19889;52.546;13.348;2023-04-24T12:33:06;1.48;;;1.10;;
16522;SDS011;19889;52.546;13.348;2023-04-24T12:35:34;1.45;;;1.00;;
16522;SDS011;19889;52.546;13.348;2023-04-24T12:38:05;1.73;;;1.15;;
16522;SDS011;19889;52.546;13.348;2023-04-24T12:40:33;2.25;;;0.90;;
16522;SDS011;19889;52.546;13.348;2023-04-24T12:43:02;3.72;;;1.00;;
16522;SDS011;19889;52.546;13.348;2023-04-24T12:45:39;0.95;;;0.88;;
16522;SDS011;19889;52.546;13.348;2023-04-24T12:48:07;1.10;;;0.85;;
16522;SDS011;19889;52.546;13.348;2023-04-24T12:50:34;0.88;;;0.88;;
16522;SDS011;19889;52.546;13.348;2023-04-24T12:53:01;2.35;;;1.20;;
16522;SDS011;19889;52.546;13.348;2023-04-24T12:55:29;1.50;;;1.17;;
16522;SDS011;19889;52.546;13.348;2023-04-24T12:57:56;1.25;;;1.15;;
16522;SDS011;19889;52.546;13.348;2023-04-24T13:00:24;0.90;;;0.90;;
16522;SDS011;19889;52.546;13.348;2023-04-24T13:02:51;1.40;;;1.30;;
16522;SDS011;19889;52.546;13.348;2023-04-24T13:05:18;2.00;;;1.60;;
16522;SDS011;19889;52.546;13.348;2023-04-24T13:07:45;2.08;;;1.10;;
16522;SDS011;19889;52.546;13.348;2023-04-24T13:10:12;1.30;;;0.80;;
16522;SDS011;19889;52.546;13.348;2023-04-24T13:12:39;1.67;;;1.30;;
16522;SDS011;19889;52.546;13.348;2023-04-24T13:15:06;1.15;;;0.98;;
16522;SDS011;19889;52.546;13.348;2023-04-24T13:17:35;1.40;;;1.25;;
16522;SDS011;19889;52.546;13.348;2023-04-24T13:20:03;1.50;;;1.10;;
16522;SDS011;19889;52.546;13.348;2023-04-24T13:22:31;2.25;;;1.35;;
16522;SDS011;19889;52.546;13.348;2023-04-24T13:24:58;3.00;;;1.50;;
16522;SDS011;19889;52.546;13.348;2023-04-24T13:27:26;1.20;;;1.10;;
16522;SDS011;19889;52.546;13.348;2023-04-24T13:29:53;3.92;;;1.55;;
16522;SDS011;19889;52.546;13.348;2023-04-24T13:32:20;1.92;;;1.30;;
16522;SDS011;19889;52.546;13.348;2023-04-24T13:34:48;0.93;;;0.90;;
16522;SDS011;19889;52.546;13.348;2023-04-24T13:37:15;1.80;;;1.13;;
16522;SDS011;19889;52.546;13.348;2023-04-24T13:39:42;1.23;;;1.10;;
16522;SDS011;19889;52.546;13.348;2023-04-24T13:42:09;1.48;;;1.00;;
16522;SDS011;19889;52.546;13.348;2023-04-24T13:44:36;0.90;;;0.90;;
16522;SDS011;19889;52.546;13.348;2023-04-24T13:47:03;1.73;;;1.20;;
16522;SDS011;19889;52.546;13.348;2023-04-24T13:49:30;1.15;;;1.08;;
16522;SDS011;19889;52.546;13.348;2023-04-24T13:51:59;1.33;;;1.10;;
16522;SDS011;19889;52.546;13.348;2023-04-24T13:54:26;1.30;;;1.20;;
16522;SDS011;19889;52.546;13.348;2023-04-24T13:56:53;1.02;;;1.00;;
16522;SDS011;19889;52.546;13.348;2023-04-24T13:59:20;0.93;;;0.77;;
16522;SDS011;19889;52.546;13.348;2023-04-24T14:01:47;1.38;;;0.93;;
16522;SDS011;19889;52.546;13.348;2023-04-24T14:04:14;1.73;;;1.00;;
16522;SDS011;19889;52.546;13.348;2023-04-24T14:06:41;2.95;;;1.60;;
16522;SDS011;19889;52.546;13.348;2023-04-24T14:09:09;1.50;;;1.05;;
16522;SDS011;19889;52.546;13.348;2023-04-24T14:11:36;0.85;;;0.80;;
16522;SDS011;19889;52.546;13.348;2023-04-24T14:14:03;1.85;;;0.90;;
16522;SDS011;19889;52.546;13.348;2023-04-24T14:16:30;2.30;;;1.05;;
16522;SDS011;19889;52.546;13.348;2023-04-24T14:18:57;1.45;;;1.10;;
16522;SDS011;19889;52.546;13.348;2023-04-24T14:21:24;1.30;;;1.20;;
16522;SDS011;19889;52.546;13.348;2023-04-24T14:23:51;1.70;;;1.10;;
16522;SDS011;19889;52.546;13.348;2023-04-24T14:26:20;1.30;;;1.20;;
16522;SDS011;19889;52.546;13.348;2023-04-24T14:28:47;1.98;;;0.80;;
16522;SDS011;19889;52.546;13.348;2023-04-24T14:31:14;0.90;;;0.90;;
16522;SDS011;19889;52.546;13.348;2023-04-24T14:33:41;1.20;;;1.10;;
16522;SDS011;19889;52.546;13.348;2023-04-24T14:36:08;2.17;;;1.13;;
16522;SDS011;19889;52.546;13.348;2023-04-24T14:38:34;1.33;;;1.23;;
16522;SDS011;19889;52.546;13.348;2023-04-24T14:41:01;3.00;;;2.28;;
16522;SDS011;19889;52.546;13.348;2023-04-24T14:43:35;1.85;;;1.75;;
16522;SDS011;19889;52.546;13.348;2023-04-24T14:46:02;1.75;;;1.00;;
16522;SDS011;19889;52.546;13.348;2023-04-24T14:48:29;1.00;;;1.00;;
16522;SDS011;19889;52.546;13.348;2023-04-24T14:50:56;1.48;;;1.30;;